Pagrindinis puslapis
METAR-TAF:

METAR-TAF

Oro uostai :

Koyuk, Aliaska, Jungtinės Amerikos Valstijos

platuma: 64-56-02N, ilguma: 161-09-29W, Aukštis: 37 m

Dabartinis oras

Ataskaita buvo paskelbta 1 valandą ir 1 minutes, ne 19:56 UTC
Vėjas 9 kt iš Šiaurės Rytų su gūsio iki 14 kt
Temperatūra 2°C
Drėgmė 69%
Slėgis 1030 hPa
Matomumas: 16.1 km
Giedras dangus

METAR: PAKK 221956Z AUTO 04009G14KT 10SM CLR 02/M03 A3041 RMK AO2 SLP308 T00171028 FZRANO

Laikas: 12:57 (20:57 UTC)


TAF: trūkstamas

Orai ataskaitas ir orų prognozės (METAR, TAF).

turimą stotys yra geltonos ir raudonos taškus žemėlapyje.

Perkelti pele per norėdami pamatyti stoties vardą.

Tada spustelėkite, norėdami matyti oro stebėjimo ir prognozės.

Norėdami pakeisti žemėlapį: spustelėkite ant žalios mygtukų su juodo kryžiaus žemyn,; žalią mygtuką su brūkšneliu, jei norite nutolinti; arba žalių rodyklių gretimoms žemėlapius.


METAR-TAF: